sensor_id;sensor_type;location;lat;lon;timestamp;pressure;altitude;pressure_sealevel;temperature;humidity
65716;BME280;63484;52.054;8.518;2023-02-20T00:00:44;101513.78;;;7.03;88.66
65716;BME280;63484;52.054;8.518;2023-02-20T00:05:46;101511.16;;;7.05;89.45
65716;BME280;63484;52.054;8.518;2023-02-20T00:10:49;101508.56;;;7.03;89.13
65716;BME280;63484;52.054;8.518;2023-02-20T00:15:50;101501.63;;;7.02;88.37
65716;BME280;63484;52.054;8.518;2023-02-20T00:20:52;101500.97;;;6.96;88.38
65716;BME280;63484;52.054;8.518;2023-02-20T00:25:54;101491.28;;;6.99;87.90
65716;BME280;63484;52.054;8.518;2023-02-20T00:30:56;101496.72;;;6.93;88.08
65716;BME280;63484;52.054;8.518;2023-02-20T00:35:57;101480.72;;;7.02;87.63
65716;BME280;63484;52.054;8.518;2023-02-20T00:41:00;101478.38;;;6.95;87.94
65716;BME280;63484;52.054;8.518;2023-02-20T00:46:01;101469.91;;;6.87;87.94
65716;BME280;63484;52.054;8.518;2023-02-20T00:51:03;101461.47;;;6.79;88.91
65716;BME280;63484;52.054;8.518;2023-02-20T00:56:06;101448.31;;;6.82;88.39
65716;BME280;63484;52.054;8.518;2023-02-20T01:01:08;101437.03;;;6.80;88.62
65716;BME280;63484;52.054;8.518;2023-02-20T01:06:09;101432.84;;;6.74;88.62
65716;BME280;63484;52.054;8.518;2023-02-20T01:11:12;101433.00;;;6.70;89.86
65716;BME280;63484;52.054;8.518;2023-02-20T01:16:14;101428.09;;;6.61;90.26
65716;BME280;63484;52.054;8.518;2023-02-20T01:21:16;101434.16;;;6.61;90.89
65716;BME280;63484;52.054;8.518;2023-02-20T01:26:19;101425.31;;;6.65;90.31
65716;BME280;63484;52.054;8.518;2023-02-20T01:31:21;101429.50;;;6.71;89.89
65716;BME280;63484;52.054;8.518;2023-02-20T01:36:22;101419.25;;;6.65;90.13
65716;BME280;63484;52.054;8.518;2023-02-20T01:41:25;101392.13;;;6.69;89.25
65716;BME280;63484;52.054;8.518;2023-02-20T01:46:46;101373.63;;;6.75;89.26
65716;BME280;63484;52.054;8.518;2023-02-20T01:51:55;101358.81;;;6.75;88.77
65716;BME280;63484;52.054;8.518;2023-02-20T01:57:01;101349.16;;;6.77;88.18
65716;BME280;63484;52.054;8.518;2023-02-20T02:02:04;101348.41;;;6.74;88.60
65716;BME280;63484;52.054;8.518;2023-02-20T02:07:06;101357.06;;;6.76;88.56
65716;BME280;63484;52.054;8.518;2023-02-20T02:12:09;101362.56;;;6.67;88.90
65716;BME280;63484;52.054;8.518;2023-02-20T02:17:29;101345.84;;;6.72;89.34
65716;BME280;63484;52.054;8.518;2023-02-20T02:22:50;101321.41;;;6.73;89.09
65716;BME280;63484;52.054;8.518;2023-02-20T02:28:46;101321.59;;;6.69;89.59
65716;BME280;63484;52.054;8.518;2023-02-20T02:34:20;101324.50;;;6.60;90.17
65716;BME280;63484;52.054;8.518;2023-02-20T02:39:37;101335.69;;;6.63;90.21
65716;BME280;63484;52.054;8.518;2023-02-20T02:44:46;101313.97;;;6.63;90.22
65716;BME280;63484;52.054;8.518;2023-02-20T02:49:54;101302.19;;;6.76;90.05
65716;BME280;63484;52.054;8.518;2023-02-20T02:54:59;101293.59;;;6.72;89.73
65716;BME280;63484;52.054;8.518;2023-02-20T03:00:04;101282.44;;;6.67;90.36
65716;BME280;63484;52.054;8.518;2023-02-20T03:05:09;101273.31;;;6.79;89.61
65716;BME280;63484;52.054;8.518;2023-02-20T03:10:16;101255.94;;;6.78;89.74
65716;BME280;63484;52.054;8.518;2023-02-20T03:15:24;101246.84;;;6.88;89.22
65716;BME280;63484;52.054;8.518;2023-02-20T03:20:37;101243.44;;;6.86;89.13
65716;BME280;63484;52.054;8.518;2023-02-20T03:25:49;101240.19;;;6.79;89.74
65716;BME280;63484;52.054;8.518;2023-02-20T03:30:57;101236.63;;;6.82;89.67
65716;BME280;63484;52.054;8.518;2023-02-20T03:36:04;101227.63;;;6.90;89.73
65716;BME280;63484;52.054;8.518;2023-02-20T03:41:28;101233.41;;;6.98;89.39
65716;BME280;63484;52.054;8.518;2023-02-20T03:46:50;101232.44;;;7.01;89.57
65716;BME280;63484;52.054;8.518;2023-02-20T03:51:54;101228.38;;;6.92;89.94
65716;BME280;63484;52.054;8.518;2023-02-20T03:57:12;101222.09;;;6.98;89.68
65716;BME280;63484;52.054;8.518;2023-02-20T04:02:22;101216.50;;;7.07;89.82
65716;BME280;63484;52.054;8.518;2023-02-20T04:07:28;101208.41;;;6.91;90.05
65716;BME280;63484;52.054;8.518;2023-02-20T04:12:36;101197.66;;;6.99;89.30
65716;BME280;63484;52.054;8.518;2023-02-20T04:17:43;101196.53;;;7.06;88.92
65716;BME280;63484;52.054;8.518;2023-02-20T04:22:49;101183.81;;;6.97;89.27
65716;BME280;63484;52.054;8.518;2023-02-20T04:27:54;101177.84;;;6.93;89.41
65716;BME280;63484;52.054;8.518;2023-02-20T04:32:56;101149.03;;;6.95;88.82
65716;BME280;63484;52.054;8.518;2023-02-20T04:37:58;101148.09;;;6.96;89.16
65716;BME280;63484;52.054;8.518;2023-02-20T04:43:01;101167.25;;;6.96;88.64
65716;BME280;63484;52.054;8.518;2023-02-20T04:48:04;101162.31;;;6.89;89.24
65716;BME280;63484;52.054;8.518;2023-02-20T04:53:05;101161.03;;;6.77;89.79
65716;BME280;63484;52.054;8.518;2023-02-20T04:58:09;101155.38;;;6.88;89.36
65716;BME280;63484;52.054;8.518;2023-02-20T05:03:23;101141.06;;;6.75;89.86
65716;BME280;63484;52.054;8.518;2023-02-20T05:08:24;101135.53;;;6.84;89.13
65716;BME280;63484;52.054;8.518;2023-02-20T05:13:27;101123.22;;;6.86;88.96
65716;BME280;63484;52.054;8.518;2023-02-20T05:18:29;101113.00;;;6.80;89.21
65716;BME280;63484;52.054;8.518;2023-02-20T05:23:31;101123.97;;;6.89;88.92
65716;BME280;63484;52.054;8.518;2023-02-20T05:28:33;101126.50;;;6.91;88.78
65716;BME280;63484;52.054;8.518;2023-02-20T05:33:35;101129.13;;;6.91;88.87
65716;BME280;63484;52.054;8.518;2023-02-20T05:38:36;101121.03;;;6.98;88.99
65716;BME280;63484;52.054;8.518;2023-02-20T05:43:41;101107.44;;;6.89;89.23
65716;BME280;63484;52.054;8.518;2023-02-20T05:48:43;101092.19;;;7.00;88.74
65716;BME280;63484;52.054;8.518;2023-02-20T05:53:48;101088.00;;;6.96;89.23
65716;BME280;63484;52.054;8.518;2023-02-20T05:58:51;101086.31;;;6.95;89.17
65716;BME280;63484;52.054;8.518;2023-02-20T06:03:52;101077.34;;;7.00;89.06
65716;BME280;63484;52.054;8.518;2023-02-20T06:08:54;101084.31;;;7.01;88.90
65716;BME280;63484;52.054;8.518;2023-02-20T06:13:57;101071.03;;;7.06;89.16
65716;BME280;63484;52.054;8.518;2023-02-20T06:18:58;101074.97;;;6.94;89.73
65716;BME280;63484;52.054;8.518;2023-02-20T06:24:00;101082.56;;;7.00;90.25
65716;BME280;63484;52.054;8.518;2023-02-20T06:29:03;101090.34;;;7.02;89.42
65716;BME280;63484;52.054;8.518;2023-02-20T06:34:05;101083.84;;;7.12;89.29
65716;BME280;63484;52.054;8.518;2023-02-20T06:39:08;101101.34;;;7.10;88.93
65716;BME280;63484;52.054;8.518;2023-02-20T06:44:11;101109.09;;;7.13;88.24
65716;BME280;63484;52.054;8.518;2023-02-20T06:49:13;101103.88;;;7.13;88.37
65716;BME280;63484;52.054;8.518;2023-02-20T06:54:14;101111.94;;;7.07;88.81
65716;BME280;63484;52.054;8.518;2023-02-20T06:59:17;101077.81;;;7.12;88.05
65716;BME280;63484;52.054;8.518;2023-02-20T07:04:22;101106.72;;;7.07;88.21
65716;BME280;63484;52.054;8.518;2023-02-20T07:09:25;101129.41;;;7.07;88.45
65716;BME280;63484;52.054;8.518;2023-02-20T07:14:28;101119.50;;;7.15;88.22
65716;BME280;63484;52.054;8.518;2023-02-20T07:19:29;101122.41;;;7.07;88.46
65716;BME280;63484;52.054;8.518;2023-02-20T07:24:31;101115.22;;;7.12;88.48
65716;BME280;63484;52.054;8.518;2023-02-20T07:29:35;101122.53;;;7.04;88.42
65716;BME280;63484;52.054;8.518;2023-02-20T07:34:37;101124.25;;;7.05;89.01
65716;BME280;63484;52.054;8.518;2023-02-20T07:39:38;101132.25;;;7.22;88.36
65716;BME280;63484;52.054;8.518;2023-02-20T07:44:42;101124.84;;;7.12;88.85
65716;BME280;63484;52.054;8.518;2023-02-20T07:49:43;101118.78;;;7.11;88.60
65716;BME280;63484;52.054;8.518;2023-02-20T07:54:45;101126.47;;;7.14;88.60
65716;BME280;63484;52.054;8.518;2023-02-20T07:59:48;101116.44;;;7.25;87.60
65716;BME280;63484;52.054;8.518;2023-02-20T08:04:49;101106.13;;;7.22;87.72
65716;BME280;63484;52.054;8.518;2023-02-20T08:09:50;101117.19;;;7.29;87.07
65716;BME280;63484;52.054;8.518;2023-02-20T08:14:53;101127.03;;;7.22;87.08
65716;BME280;63484;52.054;8.518;2023-02-20T08:19:55;101112.22;;;7.23;86.77
65716;BME280;63484;52.054;8.518;2023-02-20T08:24:56;101107.66;;;7.28;86.48
65716;BME280;63484;52.054;8.518;2023-02-20T08:29:59;101112.81;;;7.29;86.34
65716;BME280;63484;52.054;8.518;2023-02-20T08:35:01;101101.63;;;7.47;85.94
65716;BME280;63484;52.054;8.518;2023-02-20T08:40:03;101098.19;;;7.45;86.14
65716;BME280;63484;52.054;8.518;2023-02-20T08:45:09;101084.06;;;7.49;86.22
65716;BME280;63484;52.054;8.518;2023-02-20T08:50:11;101092.16;;;7.43;86.50
65716;BME280;63484;52.054;8.518;2023-02-20T08:55:12;101088.47;;;7.49;86.33
65716;BME280;63484;52.054;8.518;2023-02-20T09:00:16;101092.78;;;7.50;86.47
65716;BME280;63484;52.054;8.518;2023-02-20T09:05:18;101082.38;;;7.48;87.34
65716;BME280;63484;52.054;8.518;2023-02-20T09:10:20;101073.31;;;7.57;86.81
65716;BME280;63484;52.054;8.518;2023-02-20T09:15:23;101070.63;;;7.58;86.75
65716;BME280;63484;52.054;8.518;2023-02-20T09:20:25;101078.47;;;7.58;86.94
65716;BME280;63484;52.054;8.518;2023-02-20T09:25:26;101069.31;;;7.68;86.48
65716;BME280;63484;52.054;8.518;2023-02-20T09:30:29;101068.47;;;7.68;86.77
65716;BME280;63484;52.054;8.518;2023-02-20T09:35:30;101060.59;;;7.68;86.49
65716;BME280;63484;52.054;8.518;2023-02-20T09:40:32;101045.28;;;7.79;86.32
65716;BME280;63484;52.054;8.518;2023-02-20T09:45:36;101047.25;;;7.94;85.85
65716;BME280;63484;52.054;8.518;2023-02-20T09:50:43;101031.00;;;8.06;85.58
65716;BME280;63484;52.054;8.518;2023-02-20T09:55:46;101029.66;;;7.97;85.72
65716;BME280;63484;52.054;8.518;2023-02-20T10:00:57;101038.34;;;7.98;86.35
65716;BME280;63484;52.054;8.518;2023-02-20T10:06:02;101040.56;;;8.07;86.53
65716;BME280;63484;52.054;8.518;2023-02-20T10:11:15;101034.59;;;8.03;85.73
65716;BME280;63484;52.054;8.518;2023-02-20T10:16:31;101033.97;;;7.98;87.02
65716;BME280;63484;52.054;8.518;2023-02-20T10:21:46;101015.50;;;8.01;86.78
65716;BME280;63484;52.054;8.518;2023-02-20T10:26:53;101024.34;;;8.17;86.34
65716;BME280;63484;52.054;8.518;2023-02-20T10:32:02;101018.31;;;8.15;86.30
65716;BME280;63484;52.054;8.518;2023-02-20T10:37:09;101038.16;;;8.21;86.12
65716;BME280;63484;52.054;8.518;2023-02-20T10:42:15;101046.84;;;8.03;86.89
65716;BME280;63484;52.054;8.518;2023-02-20T10:47:27;101052.88;;;8.05;87.58
65716;BME280;63484;52.054;8.518;2023-02-20T10:52:34;101063.00;;;8.12;87.78
65716;BME280;63484;52.054;8.518;2023-02-20T10:57:40;101084.88;;;8.11;88.02
65716;BME280;63484;52.054;8.518;2023-02-20T11:02:48;101085.72;;;8.12;87.86
65716;BME280;63484;52.054;8.518;2023-02-20T11:07:56;101090.69;;;8.18;87.66
65716;BME280;63484;52.054;8.518;2023-02-20T11:12:58;101077.00;;;8.11;87.93
65716;BME280;63484;52.054;8.518;2023-02-20T11:18:09;101050.47;;;8.19;87.93
65716;BME280;63484;52.054;8.518;2023-02-20T11:23:34;101071.28;;;8.22;88.31
65716;BME280;63484;52.054;8.518;2023-02-20T11:28:35;101049.41;;;8.24;88.14
65716;BME280;63484;52.054;8.518;2023-02-20T11:33:44;101054.50;;;8.27;88.57
65716;BME280;63484;52.054;8.518;2023-02-20T11:38:55;101048.13;;;8.33;88.46
65716;BME280;63484;52.054;8.518;2023-02-20T11:44:24;101036.75;;;8.53;87.65
65716;BME280;63484;52.054;8.518;2023-02-20T11:49:28;101025.19;;;8.75;87.11
65716;BME280;63484;52.054;8.518;2023-02-20T11:54:30;101015.53;;;8.76;86.85
65716;BME280;63484;52.054;8.518;2023-02-20T11:59:35;101005.28;;;8.71;87.14
65716;BME280;63484;52.054;8.518;2023-02-20T12:04:39;100983.09;;;8.78;86.95
65716;BME280;63484;52.054;8.518;2023-02-20T12:09:41;100964.34;;;8.86;87.25
65716;BME280;63484;52.054;8.518;2023-02-20T12:14:45;100964.50;;;8.83;86.99
65716;BME280;63484;52.054;8.518;2023-02-20T12:19:53;100960.31;;;8.79;87.59
65716;BME280;63484;52.054;8.518;2023-02-20T12:25:03;100974.00;;;8.85;87.25
65716;BME280;63484;52.054;8.518;2023-02-20T12:30:20;100982.16;;;8.79;88.08
65716;BME280;63484;52.054;8.518;2023-02-20T12:35:28;100977.47;;;8.86;87.82
65716;BME280;63484;52.054;8.518;2023-02-20T12:40:36;100971.28;;;8.87;87.32
65716;BME280;63484;52.054;8.518;2023-02-20T12:45:43;100974.84;;;8.86;87.81
65716;BME280;63484;52.054;8.518;2023-02-20T12:51:03;100993.81;;;8.91;87.37
65716;BME280;63484;52.054;8.518;2023-02-20T12:56:19;101017.97;;;8.80;88.79
65716;BME280;63484;52.054;8.518;2023-02-20T13:01:24;100982.56;;;8.89;88.99
65716;BME280;63484;52.054;8.518;2023-02-20T13:06:31;100989.84;;;9.01;88.81
65716;BME280;63484;52.054;8.518;2023-02-20T13:11:38;100995.31;;;8.96;89.46
65716;BME280;63484;52.054;8.518;2023-02-20T13:16:45;100964.06;;;8.92;90.31
65716;BME280;63484;52.054;8.518;2023-02-20T13:21:53;100970.78;;;8.97;90.14
65716;BME280;63484;52.054;8.518;2023-02-20T13:26:55;100972.84;;;8.91;90.72
65716;BME280;63484;52.054;8.518;2023-02-20T13:31:58;100964.06;;;8.92;91.11
65716;BME280;63484;52.054;8.518;2023-02-20T13:37:03;100936.38;;;8.86;90.32
65716;BME280;63484;52.054;8.518;2023-02-20T13:42:29;100953.09;;;8.84;90.81
65716;BME280;63484;52.054;8.518;2023-02-20T13:47:33;100962.59;;;8.86;90.51
65716;BME280;63484;52.054;8.518;2023-02-20T13:52:40;100940.91;;;9.00;91.01
65716;BME280;63484;52.054;8.518;2023-02-20T13:57:44;100952.19;;;9.02;90.02
65716;BME280;63484;52.054;8.518;2023-02-20T14:02:46;100945.41;;;8.98;89.57
65716;BME280;63484;52.054;8.518;2023-02-20T14:07:49;100941.06;;;8.97;90.63
65716;BME280;63484;52.054;8.518;2023-02-20T14:12:57;100939.53;;;8.93;91.24
65716;BME280;63484;52.054;8.518;2023-02-20T14:18:00;100942.41;;;8.88;91.56
65716;BME280;63484;52.054;8.518;2023-02-20T14:23:08;100937.84;;;8.92;91.45
65716;BME280;63484;52.054;8.518;2023-02-20T14:28:12;100927.81;;;8.83;92.36
65716;BME280;63484;52.054;8.518;2023-02-20T14:33:20;100926.88;;;8.84;92.53
65716;BME280;63484;52.054;8.518;2023-02-20T14:38:34;100918.25;;;8.82;93.52
65716;BME280;63484;52.054;8.518;2023-02-20T14:43:39;100911.13;;;8.67;94.76
65716;BME280;63484;52.054;8.518;2023-02-20T14:48:40;100922.03;;;8.76;95.18
65716;BME280;63484;52.054;8.518;2023-02-20T14:53:44;100923.16;;;8.71;95.45
65716;BME280;63484;52.054;8.518;2023-02-20T14:58:45;100937.13;;;8.71;95.58
65716;BME280;63484;52.054;8.518;2023-02-20T15:03:59;100929.25;;;8.71;96.08
65716;BME280;63484;52.054;8.518;2023-02-20T15:09:06;100931.88;;;8.71;95.78
65716;BME280;63484;52.054;8.518;2023-02-20T15:14:16;100919.44;;;8.58;97.61
65716;BME280;63484;52.054;8.518;2023-02-20T15:19:20;100912.28;;;8.61;98.36
65716;BME280;63484;52.054;8.518;2023-02-20T15:24:41;100910.97;;;8.53;99.02
65716;BME280;63484;52.054;8.518;2023-02-20T15:29:44;100922.50;;;8.49;100.00
65716;BME280;63484;52.054;8.518;2023-02-20T15:34:49;100925.75;;;8.54;99.28
65716;BME280;63484;52.054;8.518;2023-02-20T15:39:53;100903.94;;;8.53;100.00
65716;BME280;63484;52.054;8.518;2023-02-20T15:44:55;100907.50;;;8.33;100.00
65716;BME280;63484;52.054;8.518;2023-02-20T15:49:57;100909.16;;;8.36;100.00
65716;BME280;63484;52.054;8.518;2023-02-20T15:54:59;100927.75;;;8.30;100.00
65716;BME280;63484;52.054;8.518;2023-02-20T16:00:02;100943.56;;;8.28;100.00
65716;BME280;63484;52.054;8.518;2023-02-20T16:05:04;100939.81;;;8.34;100.00
65716;BME280;63484;52.054;8.518;2023-02-20T16:10:07;100941.72;;;8.30;100.00
65716;BME280;63484;52.054;8.518;2023-02-20T16:15:14;100936.97;;;8.38;100.00
65716;BME280;63484;52.054;8.518;2023-02-20T16:20:18;100941.06;;;8.25;100.00
65716;BME280;63484;52.054;8.518;2023-02-20T16:25:22;100936.25;;;8.16;100.00
65716;BME280;63484;52.054;8.518;2023-02-20T16:30:26;100940.47;;;8.19;100.00
65716;BME280;63484;52.054;8.518;2023-02-20T16:35:29;100940.94;;;8.28;100.00
65716;BME280;63484;52.054;8.518;2023-02-20T16:40:32;100943.78;;;8.24;100.00
65716;BME280;63484;52.054;8.518;2023-02-20T16:45:34;100949.88;;;8.24;100.00
65716;BME280;63484;52.054;8.518;2023-02-20T16:50:36;100952.59;;;8.21;100.00
65716;BME280;63484;52.054;8.518;2023-02-20T16:55:39;100959.91;;;8.15;100.00
65716;BME280;63484;52.054;8.518;2023-02-20T17:00:41;100966.66;;;8.19;100.00
65716;BME280;63484;52.054;8.518;2023-02-20T17:05:44;100950.13;;;8.18;100.00
65716;BME280;63484;52.054;8.518;2023-02-20T17:10:48;100963.22;;;8.18;100.00
65716;BME280;63484;52.054;8.518;2023-02-20T17:15:50;100957.72;;;8.24;100.00
65716;BME280;63484;52.054;8.518;2023-02-20T17:20:51;100971.91;;;8.19;100.00
65716;BME280;63484;52.054;8.518;2023-02-20T17:25:54;100979.47;;;8.26;100.00
65716;BME280;63484;52.054;8.518;2023-02-20T17:30:55;100977.25;;;8.36;100.00
65716;BME280;63484;52.054;8.518;2023-02-20T17:35:57;100978.38;;;8.30;100.00
65716;BME280;63484;52.054;8.518;2023-02-20T17:40:59;100983.41;;;8.35;100.00
65716;BME280;63484;52.054;8.518;2023-02-20T17:46:01;100982.84;;;8.28;100.00
65716;BME280;63484;52.054;8.518;2023-02-20T17:51:02;100968.84;;;8.29;100.00
65716;BME280;63484;52.054;8.518;2023-02-20T17:56:05;100971.69;;;8.25;100.00
65716;BME280;63484;52.054;8.518;2023-02-20T18:01:07;100967.34;;;8.24;100.00
65716;BME280;63484;52.054;8.518;2023-02-20T18:06:09;100960.75;;;8.34;100.00
65716;BME280;63484;52.054;8.518;2023-02-20T18:11:12;100969.41;;;8.36;100.00
65716;BME280;63484;52.054;8.518;2023-02-20T18:16:13;100965.16;;;8.33;100.00
65716;BME280;63484;52.054;8.518;2023-02-20T18:21:16;100971.81;;;8.40;100.00
65716;BME280;63484;52.054;8.518;2023-02-20T18:26:19;100961.25;;;8.42;100.00
65716;BME280;63484;52.054;8.518;2023-02-20T18:31:21;100975.69;;;8.51;100.00
65716;BME280;63484;52.054;8.518;2023-02-20T18:36:23;100976.81;;;8.45;100.00
65716;BME280;63484;52.054;8.518;2023-02-20T18:41:26;100978.59;;;8.44;100.00
65716;BME280;63484;52.054;8.518;2023-02-20T18:46:29;100960.41;;;8.41;100.00
65716;BME280;63484;52.054;8.518;2023-02-20T18:51:33;100969.34;;;8.37;100.00
65716;BME280;63484;52.054;8.518;2023-02-20T18:56:36;100967.06;;;8.49;100.00
65716;BME280;63484;52.054;8.518;2023-02-20T19:01:39;100977.75;;;8.44;100.00
65716;BME280;63484;52.054;8.518;2023-02-20T19:06:41;100966.81;;;8.53;100.00
65716;BME280;63484;52.054;8.518;2023-02-20T19:11:48;100970.16;;;8.57;100.00
65716;BME280;63484;52.054;8.518;2023-02-20T19:16:51;100958.19;;;8.51;100.00
65716;BME280;63484;52.054;8.518;2023-02-20T19:21:53;100953.31;;;8.43;100.00
65716;BME280;63484;52.054;8.518;2023-02-20T19:26:56;100949.50;;;8.51;100.00
65716;BME280;63484;52.054;8.518;2023-02-20T19:31:57;100947.66;;;8.53;100.00
65716;BME280;63484;52.054;8.518;2023-02-20T19:37:01;100934.13;;;8.43;100.00
65716;BME280;63484;52.054;8.518;2023-02-20T19:42:04;100941.22;;;8.41;100.00
65716;BME280;63484;52.054;8.518;2023-02-20T19:47:06;100942.63;;;8.48;100.00
65716;BME280;63484;52.054;8.518;2023-02-20T19:52:07;100931.06;;;8.52;100.00
65716;BME280;63484;52.054;8.518;2023-02-20T19:57:10;100930.78;;;8.58;100.00
65716;BME280;63484;52.054;8.518;2023-02-20T20:02:12;100921.78;;;8.64;100.00
65716;BME280;63484;52.054;8.518;2023-02-20T20:07:13;100933.00;;;8.49;100.00
65716;BME280;63484;52.054;8.518;2023-02-20T20:12:18;100919.50;;;8.56;100.00
65716;BME280;63484;52.054;8.518;2023-02-20T20:17:38;100924.63;;;8.59;100.00
65716;BME280;63484;52.054;8.518;2023-02-20T20:22:40;100930.28;;;8.50;100.00
65716;BME280;63484;52.054;8.518;2023-02-20T20:27:43;100936.00;;;8.58;100.00
65716;BME280;63484;52.054;8.518;2023-02-20T20:32:45;100929.16;;;8.56;100.00
65716;BME280;63484;52.054;8.518;2023-02-20T20:37:47;100929.31;;;8.53;100.00
65716;BME280;63484;52.054;8.518;2023-02-20T20:42:50;100922.84;;;8.60;100.00
65716;BME280;63484;52.054;8.518;2023-02-20T20:47:51;100909.84;;;8.75;100.00
65716;BME280;63484;52.054;8.518;2023-02-20T20:52:57;100898.94;;;8.66;100.00
65716;BME280;63484;52.054;8.518;2023-02-20T20:58:01;100902.34;;;8.68;100.00
65716;BME280;63484;52.054;8.518;2023-02-20T21:03:04;100884.22;;;8.63;100.00
65716;BME280;63484;52.054;8.518;2023-02-20T21:08:07;100881.69;;;8.62;100.00
65716;BME280;63484;52.054;8.518;2023-02-20T21:13:11;100893.94;;;8.61;100.00
65716;BME280;63484;52.054;8.518;2023-02-20T21:18:13;100888.97;;;8.74;100.00
65716;BME280;63484;52.054;8.518;2023-02-20T21:23:15;100891.38;;;8.60;100.00
65716;BME280;63484;52.054;8.518;2023-02-20T21:28:17;100889.16;;;8.69;100.00
65716;BME280;63484;52.054;8.518;2023-02-20T21:33:19;100879.78;;;8.65;100.00
65716;BME280;63484;52.054;8.518;2023-02-20T21:38:20;100877.47;;;8.59;100.00
65716;BME280;63484;52.054;8.518;2023-02-20T21:43:23;100869.53;;;8.61;100.00
65716;BME280;63484;52.054;8.518;2023-02-20T21:48:42;100868.19;;;8.69;100.00
65716;BME280;63484;52.054;8.518;2023-02-20T21:53:44;100865.81;;;8.65;100.00
65716;BME280;63484;52.054;8.518;2023-02-20T21:58:47;100876.84;;;8.71;100.00
65716;BME280;63484;52.054;8.518;2023-02-20T22:04:03;100874.53;;;8.65;100.00
65716;BME280;63484;52.054;8.518;2023-02-20T22:09:04;100879.22;;;8.76;100.00
65716;BME280;63484;52.054;8.518;2023-02-20T22:14:25;100884.47;;;8.59;100.00
65716;BME280;63484;52.054;8.518;2023-02-20T22:19:44;100881.38;;;8.68;100.00
65716;BME280;63484;52.054;8.518;2023-02-20T22:25:03;100876.22;;;8.66;100.00
65716;BME280;63484;52.054;8.518;2023-02-20T22:30:24;100882.25;;;8.68;100.00
65716;BME280;63484;52.054;8.518;2023-02-20T22:35:43;100881.28;;;8.69;100.00
65716;BME280;63484;52.054;8.518;2023-02-20T22:41:02;100883.22;;;8.66;100.00
65716;BME280;63484;52.054;8.518;2023-02-20T22:46:23;100881.38;;;8.68;100.00
65716;BME280;63484;52.054;8.518;2023-02-20T22:51:45;100888.97;;;8.74;100.00
65716;BME280;63484;52.054;8.518;2023-02-20T22:57:04;100889.09;;;8.71;100.00
65716;BME280;63484;52.054;8.518;2023-02-20T23:02:25;100879.22;;;8.76;100.00
65716;BME280;63484;52.054;8.518;2023-02-20T23:07:44;100883.72;;;8.74;100.00
65716;BME280;63484;52.054;8.518;2023-02-20T23:13:03;100879.69;;;8.67;100.00
65716;BME280;63484;52.054;8.518;2023-02-20T23:18:24;100870.66;;;8.72;100.00
65716;BME280;63484;52.054;8.518;2023-02-20T23:23:43;100891.69;;;8.71;100.00
65716;BME280;63484;52.054;8.518;2023-02-20T23:29:02;100892.56;;;8.71;100.00
65716;BME280;63484;52.054;8.518;2023-02-20T23:34:23;100890.03;;;8.70;100.00
65716;BME280;63484;52.054;8.518;2023-02-20T23:39:43;100896.03;;;8.72;100.00
65716;BME280;63484;52.054;8.518;2023-02-20T23:45:04;100885.72;;;8.69;100.00
65716;BME280;63484;52.054;8.518;2023-02-20T23:50:24;100887.41;;;8.70;100.00
65716;BME280;63484;52.054;8.518;2023-02-20T23:55:43;100878.31;;;8.77;100.00
